createdAt,value
2023-05-20T00:02:45.072Z,99732.84
2023-05-20T00:05:47.261Z,99744.72
2023-05-20T00:08:49.203Z,99738.41
2023-05-20T00:11:51.115Z,99739.41
2023-05-20T00:14:53.923Z,99740.44
2023-05-20T00:17:57.838Z,99740.00
2023-05-20T00:20:59.704Z,99731.00
2023-05-20T00:24:01.855Z,99729.88
2023-05-20T00:27:03.846Z,99745.59
2023-05-20T00:30:06.362Z,99729.69
2023-05-20T00:33:08.448Z,99734.84
2023-05-20T00:36:10.477Z,99740.00
2023-05-20T00:39:12.491Z,99732.47
2023-05-20T00:42:25.110Z,99728.69
2023-05-20T00:45:27.231Z,99731.13
2023-05-20T00:48:40.190Z,99725.91
2023-05-20T00:51:42.006Z,99721.47
2023-05-20T00:54:45.016Z,99727.06
2023-05-20T00:57:46.970Z,99726.25
2023-05-20T01:00:49.091Z,99734.72
2023-05-20T01:03:52.176Z,99732.22
2023-05-20T01:06:55.783Z,99725.13
2023-05-20T01:09:57.686Z,99726.38
2023-05-20T01:13:03.062Z,99716.13
2023-05-20T01:16:06.090Z,99721.34
2023-05-20T01:19:48.724Z,99722.56
2023-05-20T01:22:54.949Z,99727.53
2023-05-20T01:25:56.819Z,99720.81
2023-05-20T01:29:04.307Z,99730.34
2023-05-20T01:32:32.023Z,99727.00
2023-05-20T01:35:35.128Z,99720.28
2023-05-20T01:38:39.403Z,99730.66
2023-05-20T01:41:42.136Z,99738.75
2023-05-20T01:44:44.225Z,99735.03
2023-05-20T01:47:46.510Z,99733.34
2023-05-20T01:50:48.348Z,99730.66
2023-05-20T01:53:51.890Z,99729.16
2023-05-20T01:56:54.082Z,99733.75
2023-05-20T01:59:57.552Z,99725.63
2023-05-20T02:02:59.617Z,99724.34
2023-05-20T02:06:01.653Z,99726.78
2023-05-20T02:09:03.777Z,99733.22
2023-05-20T02:12:06.161Z,99731.09
2023-05-20T02:15:09.446Z,99733.81
2023-05-20T02:18:12.738Z,99739.03
2023-05-20T02:21:14.670Z,99734.69
2023-05-20T02:24:17.106Z,99727.03
2023-05-20T02:27:18.944Z,99728.97
2023-05-20T02:30:20.789Z,99716.75
2023-05-20T02:33:22.850Z,99721.59
2023-05-20T02:36:24.794Z,99732.03
2023-05-20T02:39:28.524Z,99735.63
2023-05-20T02:42:30.642Z,99727.59
2023-05-20T02:45:32.548Z,99732.41
2023-05-20T02:48:35.751Z,99734.53
2023-05-20T02:51:37.709Z,99733.50
2023-05-20T02:54:39.595Z,99732.75
2023-05-20T02:57:42.087Z,99739.44
2023-05-20T03:00:46.009Z,99740.09
2023-05-20T03:03:47.942Z,99736.97
2023-05-20T03:06:52.121Z,99738.06
2023-05-20T03:09:54.028Z,99739.16
2023-05-20T03:12:55.901Z,99735.69
2023-05-20T03:15:57.912Z,99743.03
2023-05-20T03:18:59.714Z,99745.97
2023-05-20T03:22:02.293Z,99745.78
2023-05-20T03:25:06.187Z,99738.94
2023-05-20T03:28:08.027Z,99740.91
2023-05-20T03:31:12.262Z,99747.84
2023-05-20T03:34:14.255Z,99748.47
2023-05-20T03:37:16.424Z,99752.50
2023-05-20T03:40:18.365Z,99754.44
2023-05-20T03:43:20.468Z,99746.81
2023-05-20T03:46:22.457Z,99752.13
2023-05-20T03:49:24.348Z,99753.69
2023-05-20T03:52:27.023Z,99754.84
2023-05-20T03:55:29.206Z,99749.06
2023-05-20T03:58:31.445Z,99743.06
2023-05-20T04:01:33.949Z,99741.63
2023-05-20T04:04:36.294Z,99738.75
2023-05-20T04:07:38.242Z,99741.84
2023-05-20T04:10:45.499Z,99746.00
2023-05-20T04:13:47.409Z,99742.59
2023-05-20T04:16:50.359Z,99751.50
2023-05-20T04:19:52.436Z,99743.88
2023-05-20T04:22:55.204Z,99751.97
2023-05-20T04:26:02.457Z,99745.88
2023-05-20T04:29:06.432Z,99746.13
2023-05-20T04:32:11.242Z,99744.91
2023-05-20T04:35:13.880Z,99740.06
2023-05-20T04:38:18.698Z,99734.31
2023-05-20T04:41:20.737Z,99733.44
2023-05-20T04:44:24.791Z,99743.59
2023-05-20T04:47:26.740Z,99741.53
2023-05-20T04:50:29.560Z,99745.31
2023-05-20T04:53:31.423Z,99748.09
2023-05-20T04:56:33.751Z,99742.94
2023-05-20T04:59:35.749Z,99744.03
2023-05-20T05:02:38.607Z,99748.56
2023-05-20T05:05:41.059Z,99743.00
2023-05-20T05:08:43.693Z,99742.66
2023-05-20T05:11:45.806Z,99739.97
2023-05-20T05:14:47.680Z,99741.28
2023-05-20T05:17:51.390Z,99736.72
2023-05-20T05:21:04.057Z,99739.66
2023-05-20T05:24:06.814Z,99742.63
2023-05-20T05:27:08.761Z,99749.41
2023-05-20T05:30:11.013Z,99746.31
2023-05-20T05:33:14.362Z,99739.38
2023-05-20T05:36:16.912Z,99742.16
2023-05-20T05:39:19.305Z,99748.03
2023-05-20T05:42:21.256Z,99750.69
2023-05-20T05:45:23.185Z,99747.47
2023-05-20T05:48:25.068Z,99742.97
2023-05-20T05:51:29.105Z,99744.81
2023-05-20T05:54:31.996Z,99742.16
2023-05-20T05:57:34.194Z,99734.66
2023-05-20T06:00:37.223Z,99735.50
2023-05-20T06:03:39.289Z,99745.84
2023-05-20T06:06:41.754Z,99737.94
2023-05-20T06:09:43.704Z,99744.16
2023-05-20T06:12:45.647Z,99739.75
2023-05-20T06:15:49.936Z,99738.22
2023-05-20T06:18:53.326Z,99743.31
2023-05-20T06:21:57.053Z,99744.53
2023-05-20T06:25:01.763Z,99750.50
2023-05-20T06:28:05.396Z,99742.50
2023-05-20T06:31:08.987Z,99740.34
2023-05-20T06:34:11.406Z,99742.63
2023-05-20T06:37:13.335Z,99734.19
2023-05-20T06:40:15.736Z,99738.91
2023-05-20T06:43:17.799Z,99739.44
2023-05-20T06:46:28.817Z,99742.63
2023-05-20T06:49:36.116Z,99744.88
2023-05-20T06:52:38.007Z,99744.72
2023-05-20T06:55:40.086Z,99742.91
2023-05-20T06:58:42.563Z,99743.47
2023-05-20T07:01:45.457Z,99738.38
2023-05-20T07:04:47.797Z,99739.31
2023-05-20T07:07:50.450Z,99745.97
2023-05-20T07:10:52.389Z,99742.38
2023-05-20T07:13:56.468Z,99746.84
2023-05-20T07:17:01.313Z,99748.84
2023-05-20T07:20:04.439Z,99740.28
2023-05-20T07:23:07.251Z,99747.75
2023-05-20T07:26:17.545Z,99747.75
2023-05-20T07:29:19.443Z,99752.44
2023-05-20T07:32:21.708Z,99747.75
2023-05-20T07:35:24.614Z,99749.16
2023-05-20T07:38:27.063Z,99752.97
2023-05-20T07:41:35.457Z,99759.63
2023-05-20T07:44:37.176Z,99753.56
2023-05-20T07:47:40.176Z,99745.28
2023-05-20T07:50:42.947Z,99747.44
2023-05-20T07:53:45.844Z,99741.91
2023-05-20T07:56:47.859Z,99736.06
2023-05-20T07:59:49.652Z,99736.84
2023-05-20T08:02:52.308Z,99742.91
2023-05-20T08:06:01.256Z,99737.91
2023-05-20T08:09:03.974Z,99738.72
2023-05-20T08:12:09.225Z,99744.50
2023-05-20T08:15:11.743Z,99749.75
2023-05-20T08:18:15.923Z,99746.34
2023-05-20T08:21:17.898Z,99755.16
2023-05-20T08:24:19.796Z,99753.06
2023-05-20T08:27:21.821Z,99747.97
2023-05-20T08:30:23.886Z,99741.34
2023-05-20T08:33:26.691Z,99746.50
2023-05-20T08:36:28.733Z,99736.88
2023-05-20T08:39:30.500Z,99748.56
2023-05-20T08:42:32.657Z,99743.75
2023-05-20T08:45:38.485Z,99750.72
2023-05-20T08:48:45.956Z,99755.38
2023-05-20T08:51:48.333Z,99740.06
2023-05-20T08:54:52.112Z,99759.53
2023-05-20T08:57:58.203Z,99752.78
2023-05-20T09:01:01.051Z,99754.00
2023-05-20T09:04:02.922Z,99751.44
2023-05-20T09:07:05.105Z,99742.28
2023-05-20T09:10:07.367Z,99743.25
2023-05-20T09:13:10.418Z,99740.94
2023-05-20T09:16:12.872Z,99744.19
2023-05-20T09:19:14.870Z,99741.31
2023-05-20T09:22:26.090Z,99736.38
2023-05-20T09:25:28.487Z,99741.09
2023-05-20T09:28:30.482Z,99738.53
2023-05-20T09:31:34.069Z,99740.97
2023-05-20T09:34:36.168Z,99725.78
2023-05-20T09:37:39.462Z,99725.06
2023-05-20T09:40:44.564Z,99715.84
2023-05-20T09:43:46.981Z,99720.00
2023-05-20T09:46:50.605Z,99709.91
2023-05-20T09:49:53.792Z,99724.53
2023-05-20T09:52:56.253Z,99715.81
2023-05-20T09:55:58.889Z,99718.16
2023-05-20T09:59:02.629Z,99723.28
2023-05-20T10:02:06.746Z,99712.03
2023-05-20T10:05:16.743Z,99716.03
2023-05-20T10:08:37.474Z,99725.19
2023-05-20T10:11:45.089Z,99720.47
2023-05-20T10:15:07.482Z,99716.91
2023-05-20T10:18:18.357Z,99715.16
2023-05-20T10:21:24.593Z,99709.59
2023-05-20T10:24:32.259Z,99713.25
2023-05-20T10:27:44.694Z,99711.50
2023-05-20T10:30:51.105Z,99713.38
2023-05-20T10:33:53.915Z,99708.88
2023-05-20T10:36:55.898Z,99698.84
2023-05-20T10:40:08.669Z,99694.41
2023-05-20T10:43:11.838Z,99701.22
2023-05-20T10:46:31.152Z,99689.69
2023-05-20T10:49:36.143Z,99692.25
2023-05-20T10:52:38.156Z,99688.84
2023-05-20T10:55:41.570Z,99692.09
2023-05-20T10:58:44.712Z,99698.53
2023-05-20T11:01:46.837Z,99699.44
2023-05-20T11:04:49.692Z,99693.56
2023-05-20T11:07:52.316Z,99691.53
2023-05-20T11:10:56.868Z,99688.63
2023-05-20T11:14:00.410Z,99682.75
2023-05-20T11:17:02.318Z,99684.88
2023-05-20T11:20:04.760Z,99686.69
2023-05-20T11:23:12.452Z,99669.00
2023-05-20T11:26:14.416Z,99665.84
2023-05-20T11:29:17.601Z,99665.34
2023-05-20T11:32:21.396Z,99661.50
2023-05-20T11:35:25.019Z,99662.00
2023-05-20T11:38:26.826Z,99665.63
2023-05-20T11:41:29.010Z,99671.09
2023-05-20T11:44:31.091Z,99661.53
2023-05-20T11:47:33.052Z,99661.66
2023-05-20T11:50:39.598Z,99666.31
2023-05-20T11:53:41.952Z,99662.19
2023-05-20T11:56:45.466Z,99664.69
2023-05-20T11:59:47.856Z,99660.13
2023-05-20T12:02:49.970Z,99652.75
2023-05-20T12:05:53.000Z,99645.38
2023-05-20T12:08:54.951Z,99641.53
2023-05-20T12:11:56.944Z,99637.81
2023-05-20T12:14:58.867Z,99639.56
2023-05-20T12:18:01.615Z,99639.72
2023-05-20T12:21:03.709Z,99631.19
2023-05-20T12:24:07.144Z,99633.81
2023-05-20T12:27:09.075Z,99627.47
2023-05-20T12:30:11.326Z,99627.97
2023-05-20T12:33:13.636Z,99622.50
2023-05-20T12:36:15.620Z,99627.44
2023-05-20T12:39:18.597Z,99624.97
2023-05-20T12:42:20.636Z,99631.91
2023-05-20T12:45:26.170Z,99631.81
2023-05-20T12:48:28.002Z,99625.47
2023-05-20T12:51:29.972Z,99627.88
2023-05-20T12:54:32.182Z,99633.72
2023-05-20T12:57:34.169Z,99622.59
2023-05-20T13:00:36.583Z,99627.59
2023-05-20T13:03:38.639Z,99634.19
2023-05-20T13:06:41.123Z,99631.56
2023-05-20T13:09:42.995Z,99622.78
2023-05-20T13:12:47.522Z,99622.34
2023-05-20T13:15:49.623Z,99617.47
2023-05-20T13:18:51.767Z,99624.16
2023-05-20T13:21:56.433Z,99614.06
2023-05-20T13:24:58.313Z,99608.16
2023-05-20T13:28:00.151Z,99609.75
2023-05-20T13:31:02.988Z,99606.81
2023-05-20T13:34:06.025Z,99602.69
2023-05-20T13:37:07.841Z,99612.50
2023-05-20T13:40:09.779Z,99606.97
2023-05-20T13:43:11.621Z,99609.22
2023-05-20T13:46:13.305Z,99610.28
2023-05-20T13:49:15.242Z,99614.19
2023-05-20T13:52:17.145Z,99623.28
2023-05-20T13:55:18.942Z,99627.47
2023-05-20T13:58:20.852Z,99617.28
2023-05-20T14:01:22.741Z,99624.47
2023-05-20T14:04:26.140Z,99623.09
2023-05-20T14:07:28.241Z,99613.13
2023-05-20T14:10:30.247Z,99614.53
2023-05-20T14:13:32.150Z,99616.44
2023-05-20T14:16:34.095Z,99615.63
2023-05-20T14:19:36.146Z,99607.63
2023-05-20T14:22:38.273Z,99612.31
2023-05-20T14:25:40.069Z,99609.53
2023-05-20T14:28:42.108Z,99606.25
2023-05-20T14:31:43.961Z,99599.09
2023-05-20T14:34:45.828Z,99600.44
2023-05-20T14:37:47.643Z,99606.78
2023-05-20T14:40:49.506Z,99607.59
2023-05-20T14:43:51.526Z,99609.25
2023-05-20T14:46:53.535Z,99611.72
2023-05-20T14:49:56.117Z,99609.78
2023-05-20T14:52:58.047Z,99613.03
2023-05-20T14:55:59.815Z,99612.19
2023-05-20T14:59:01.820Z,99620.41
2023-05-20T15:02:05.609Z,99606.47
2023-05-20T15:05:07.793Z,99615.88
2023-05-20T15:08:09.770Z,99615.63
2023-05-20T15:11:11.453Z,99614.69
2023-05-20T15:14:13.260Z,99613.31
2023-05-20T15:17:15.324Z,99609.66
2023-05-20T15:20:17.152Z,99620.44
2023-05-20T15:23:18.961Z,99623.69
2023-05-20T15:26:21.780Z,99629.63
2023-05-20T15:29:23.773Z,99619.81
2023-05-20T15:32:25.745Z,99625.31
2023-05-20T15:35:27.857Z,99625.53
2023-05-20T15:38:29.693Z,99621.19
2023-05-20T15:41:32.701Z,99636.66
2023-05-20T15:44:36.165Z,99633.59
2023-05-20T15:47:40.713Z,99634.22
2023-05-20T15:50:42.883Z,99633.25
2023-05-20T15:53:44.768Z,99640.72
2023-05-20T15:56:46.706Z,99640.28
2023-05-20T15:59:49.613Z,99640.06
2023-05-20T16:02:51.614Z,99643.34
2023-05-20T16:05:53.462Z,99648.50
2023-05-20T16:08:55.304Z,99653.91
2023-05-20T16:11:57.218Z,99653.28
2023-05-20T16:14:59.222Z,99659.16
2023-05-20T16:18:01.375Z,99660.28
2023-05-20T16:21:07.258Z,99661.50
2023-05-20T16:24:09.102Z,99662.94
2023-05-20T16:27:11.524Z,99660.59
2023-05-20T16:30:13.439Z,99662.88
2023-05-20T16:33:15.451Z,99674.91
2023-05-20T16:36:17.273Z,99664.47
2023-05-20T16:39:19.182Z,99666.41
2023-05-20T16:42:21.038Z,99667.69
2023-05-20T16:45:22.893Z,99671.00
2023-05-20T16:48:24.799Z,99664.94
2023-05-20T16:51:26.674Z,99671.97
2023-05-20T16:54:28.563Z,99675.28
2023-05-20T16:57:31.235Z,99676.69
2023-05-20T17:00:33.289Z,99674.53
2023-05-20T17:06:40.002Z,99679.19
2023-05-20T17:09:41.914Z,99683.09
2023-05-20T17:12:43.755Z,99680.94
2023-05-20T17:15:45.877Z,99666.63
2023-05-20T17:18:48.691Z,99674.91
2023-05-20T17:21:50.951Z,99673.34
2023-05-20T17:24:52.764Z,99676.03
2023-05-20T17:27:54.693Z,99679.66
2023-05-20T17:30:56.814Z,99679.75
2023-05-20T17:33:58.703Z,99684.22
2023-05-20T17:37:00.757Z,99693.34
2023-05-20T17:40:05.860Z,99689.03
2023-05-20T17:43:07.766Z,99690.56
2023-05-20T17:46:09.627Z,99696.75
2023-05-20T17:49:11.497Z,99694.31
2023-05-20T17:52:13.330Z,99704.63
2023-05-20T17:55:15.306Z,99699.31
2023-05-20T17:58:17.214Z,99708.16
2023-05-20T18:01:19.039Z,99712.84
2023-05-20T18:04:21.921Z,99713.94
2023-05-20T18:07:23.917Z,99709.38
2023-05-20T18:10:25.758Z,99704.78
2023-05-20T18:13:27.640Z,99711.34
2023-05-20T18:16:30.151Z,99709.69
2023-05-20T18:19:33.921Z,99709.28
2023-05-20T18:22:35.921Z,99712.44
2023-05-20T18:25:39.933Z,99699.94
2023-05-20T18:28:43.731Z,99711.94
2023-05-20T18:31:45.664Z,99709.03
2023-05-20T18:34:47.537Z,99708.41
2023-05-20T18:37:49.496Z,99709.06
2023-05-20T18:40:51.936Z,99706.41
2023-05-20T18:43:53.624Z,99715.66
2023-05-20T18:46:55.578Z,99717.31
2023-05-20T18:49:57.375Z,99724.03
2023-05-20T18:52:59.433Z,99722.16
2023-05-20T18:56:03.192Z,99727.44
2023-05-20T18:59:05.105Z,99725.56
2023-05-20T19:02:07.060Z,99727.06
2023-05-20T19:05:10.022Z,99723.28
2023-05-20T19:08:12.078Z,99730.00
2023-05-20T19:11:15.465Z,99740.47
2023-05-20T19:14:17.408Z,99732.75
2023-05-20T19:17:21.034Z,99736.75
2023-05-20T19:20:23.174Z,99730.28
2023-05-20T19:23:25.049Z,99742.63
2023-05-20T19:26:26.917Z,99743.25
2023-05-20T19:29:28.903Z,99743.06
2023-05-20T19:32:30.870Z,99752.69
2023-05-20T19:35:33.983Z,99747.28
2023-05-20T19:38:36.081Z,99748.13
2023-05-20T19:41:39.986Z,99747.31
2023-05-20T19:44:41.890Z,99756.91
2023-05-20T19:47:44.073Z,99759.63
2023-05-20T19:50:46.052Z,99752.50
2023-05-20T19:53:47.909Z,99751.25
2023-05-20T19:56:49.753Z,99752.91
2023-05-20T19:59:53.534Z,99748.53
2023-05-20T20:02:57.054Z,99748.50
2023-05-20T20:05:58.986Z,99747.88
2023-05-20T20:09:01.262Z,99753.47
2023-05-20T20:12:03.323Z,99755.56
2023-05-20T20:15:05.560Z,99759.91
2023-05-20T20:18:07.507Z,99764.50
2023-05-20T20:21:11.101Z,99766.16
2023-05-20T20:24:12.925Z,99764.69
2023-05-20T20:27:14.852Z,99763.22
2023-05-20T20:30:16.626Z,99765.31
2023-05-20T20:33:19.720Z,99764.44
2023-05-20T20:36:21.612Z,99760.25
2023-05-20T20:39:25.199Z,99751.03
2023-05-20T20:42:27.990Z,99744.53
2023-05-20T20:45:29.651Z,99748.66
2023-05-20T20:48:32.647Z,99745.31
2023-05-20T20:51:34.424Z,99744.06
2023-05-20T20:54:36.621Z,99743.19
2023-05-20T20:57:39.288Z,99748.38
2023-05-20T21:00:41.099Z,99738.34
2023-05-20T21:03:44.688Z,99744.75
2023-05-20T21:06:46.634Z,99740.97
2023-05-20T21:09:53.880Z,99745.94
2023-05-20T21:12:57.093Z,99741.72
2023-05-20T21:15:59.017Z,99740.00
2023-05-20T21:19:00.969Z,99737.06
2023-05-20T21:22:03.036Z,99738.03
2023-05-20T21:25:05.393Z,99748.81
2023-05-20T21:28:07.270Z,99749.13
2023-05-20T21:31:09.267Z,99755.06
2023-05-20T21:34:11.033Z,99746.31
2023-05-20T21:37:12.853Z,99745.03
2023-05-20T21:40:14.693Z,99745.22
2023-05-20T21:43:17.828Z,99741.22
2023-05-20T21:46:19.609Z,99738.66
2023-05-20T21:49:21.405Z,99738.16
2023-05-20T21:52:23.186Z,99731.84
2023-05-20T21:55:25.105Z,99729.31
2023-05-20T21:58:26.923Z,99722.19
2023-05-20T22:01:29.121Z,99733.38
2023-05-20T22:04:33.419Z,99726.88
2023-05-20T22:07:35.366Z,99721.59
2023-05-20T22:10:37.236Z,99721.13
2023-05-20T22:13:43.292Z,99719.84
2023-05-20T22:16:46.612Z,99724.41
2023-05-20T22:19:49.910Z,99723.13
2023-05-20T22:22:51.787Z,99716.22
2023-05-20T22:25:55.008Z,99716.56
2023-05-20T22:28:56.910Z,99725.50
2023-05-20T22:31:59.811Z,99712.19
2023-05-20T22:35:01.717Z,99716.66
2023-05-20T22:38:03.691Z,99705.00
2023-05-20T22:41:05.618Z,99706.22
2023-05-20T22:44:07.523Z,99703.91
2023-05-20T22:47:09.403Z,99711.16
2023-05-20T22:50:13.695Z,99712.84
2023-05-20T22:53:16.536Z,99713.09
2023-05-20T22:56:18.645Z,99704.94
2023-05-20T22:59:21.349Z,99707.91
2023-05-20T23:02:26.120Z,99701.28
2023-05-20T23:05:30.093Z,99692.44
2023-05-20T23:08:31.967Z,99691.41
2023-05-20T23:11:33.784Z,99698.00
2023-05-20T23:14:35.635Z,99695.78
2023-05-20T23:17:39.551Z,99692.47
2023-05-20T23:20:41.596Z,99697.25
2023-05-20T23:23:43.503Z,99687.88
2023-05-20T23:26:45.281Z,99698.06
2023-05-20T23:29:47.452Z,99689.91
2023-05-20T23:32:50.068Z,99683.19
2023-05-20T23:35:52.689Z,99687.38
2023-05-20T23:38:54.899Z,99683.19
2023-05-20T23:41:56.724Z,99683.78
2023-05-20T23:44:58.602Z,99677.91
2023-05-20T23:48:01.538Z,99685.56
2023-05-20T23:51:03.401Z,99683.81
2023-05-20T23:54:05.189Z,99682.50
2023-05-20T23:57:10.273Z,99681.41
